チャットラパティー・シヴァージー国際空港の過去48時間の天気

チャットラパティー・シヴァージー国際空港 (Bombay / Santacruz)

現在時刻: 2/7 01:43 IST (2/6 20:13 UTC) 以下の時間は現地時間です。

過去48時間のMETAR気象情報
時間 風向 風速(m/s) 視程 気温(℃) 湿度(%) 気圧(hPa) 天気現象
7 01:30 北北西 3 2500m 24 74 1011 煙霧
7 01:00 北北西 3 2500m 24 69 1011 煙霧
7 00:30 北西 2 2500m 25 57 1012
7 00:00 北北西 2 2500m 25 54 1012
6 23:30 西北西 3 3000m 25 41 1012
6 23:00 北北東 2 3000m 27 30 1012
6 22:30 3 3000m 27 32 1012
6 22:00 北東 3 3000m 27 34 1012
6 21:30 北東 3 3000m 28 35 1012
6 21:00 4 3000m 28 32 1012
6 20:30 北北西 6 3000m 28 32 1012
6 20:00 北北西 6 3000m 28 35 1011
6 19:30 5 3000m 28 37 1011
6 19:00 北北西 4 3000m 28 40 1010
6 18:30 北西 4 3500m 29 37 1010
6 18:00 北西 4 3500m 30 33 1010
6 17:30 北西 4 3500m 30 33 1010
6 17:00 4 3500m 31 31 1009
6 16:30 西北西 6 3500m 30 33 1009
6 16:00 北西 4 3500m 31 31 1009
6 15:30 西北西 4 3500m 32 36 1010
6 15:00 西北西 5 3500m 32 34 1010
6 14:30 西北西 5 3000m 32 31 1010
6 14:00 西 6 3000m 32 38 1010
6 13:30 西 5 3000m 31 43 1011
6 13:00 西 5 3000m 30 43 1011
6 12:30 西 4 3000m 30 43 1012
6 12:00 西 5 3000m 30 43 1013
6 11:30 西 3 2500m 30 38 1013
6 11:00 南南西 2 2500m 30 31 1014
6 10:30 静穏 0 2500m 28 35 1014
6 10:00 西北西 2 2500m 27 42 1014
6 09:30 北北西 2 2500m 26 45 1014
6 09:00 東南東 2 2100m 25 57 1013 煙霧
6 08:30 南東 2 2100m 24 61 1012 煙霧
6 08:00 静穏 0 2100m 22 73 1012 煙霧
6 07:30 北東 2 2100m 22 73 1012 煙霧
6 07:00 東北東 3 2100m 23 69 1011 煙霧
6 06:30 北東 3 2200m 23 73 1011 煙霧
6 06:00 2 2500m 24 74 1011 煙霧
6 05:30 北北東 2 2500m 23 73 1010 煙霧
6 05:00 北北西 2 2500m 23 78 1010 煙霧
6 04:30 北北西 2 2500m 23 78 1010 煙霧
6 04:00 西北西 2 2500m 23 73 1010 煙霧
6 03:30 西 2 2200m 23 78 1010 煙霧
6 03:00 西南西 2 2200m 23 78 1011 もや
6 02:30 南南西 2 2500m 23 78 1011 もや
6 02:00 西南西 3 2500m 23 78 1011 煙霧
6 01:00 静穏 0 2500m 25 57 1012
6 00:30 静穏 0 2500m 25 54 1012
6 00:00 北北西 2 2500m 26 51 1012
5 23:30 2 2500m 26 51 1012
5 23:00 北東 3 2200m 26 58 1012 煙霧
5 22:30 3 2200m 26 58 1012 煙霧
5 22:00 西南西 2 2200m 26 58 1012 煙霧
5 21:30 西北西 2 2100m 26 58 1011 煙霧
5 21:00 西北西 3 1700m 26 70 1011 煙霧
5 20:30 北北西 3 1700m 27 66 1011 煙霧
5 20:00 北西 2 1600m 27 70 1011 煙霧
5 19:30 西北西 3 1800m 27 66 1010 煙霧
5 19:00 西 4 2200m 28 58 1010
5 18:30 北西 3 2500m 29 48 1010
5 18:00 北西 4 2500m 29 43 1009
5 17:30 西北西 2 2500m 31 31 1009
5 17:00 西北西 3 2500m 32 29 1009
5 16:30 西 4 2500m 32 36 1009
5 16:00 西 5 2500m 31 43 1009
5 15:30 西 6 2500m 32 31 1009
5 15:00 西 4 2500m 31 31 1009
5 14:30 西南西 4 2500m 31 36 1010
5 14:00 西 4 3000m 31 40 1010
5 13:30 西 4 3000m 32 36 1010
5 13:00 北西 2 2500m 33 24 1011
5 12:30 西 3 2500m 32 29 1011
5 12:00 西 2 2500m 32 29 1012
5 11:30 東北東 2 2500m 32 24 1012
5 11:00 2 2500m 31 29 1012
5 10:30 2 3000m 31 33 1010
5 10:00 北北東 3 2500m 30 33 1012
5 09:30 北北東 4 2200m 28 37 1012
5 09:00 東南東 4 1800m 27 45 1012
5 08:30 東北東 2 1800m 26 48 1012
5 08:00 静穏 0 1800m 25 50 1011
5 07:30 静穏 0 2200m 24 54 1011
5 07:00 静穏 0 2200m 25 47 1010
5 06:30 南東 3 2200m 25 47 1010
5 06:00 静穏 0 2200m 24 57 1010 煙霧
5 05:30 静穏 0 2200m 24 61 1009 煙霧
5 05:00 2 2200m 25 61 1009 煙霧
5 04:30 静穏 0 2200m 24 65 1009 煙霧
5 04:00 静穏 0 2200m 22 78 1009 煙霧
5 03:30 静穏 0 3000m 23 73 1009 煙霧
5 03:00 静穏 0 2200m 24 69 1010 煙霧
5 02:30 西 2 2500m 25 61 1010 煙霧
5 02:00 静穏 0 2500m 25 69 1010 煙霧
VABB 062000Z 33005KT 2500 HZ NSC 24/19 Q1011 NOSIG
VABB 061930Z 33006KT 2500 HZ NSC 24/18 Q1011 NOSIG
VABB 061900Z 32004KT 2500 FU NSC 25/16 Q1012 NOSIG
VABB 061830Z 34004KT 2500 FU NSC 25/15 Q1012 NOSIG
VABB 061800Z 29006KT 3000 FU NSC 25/11 Q1012 NOSIG
VABB 061730Z 03004KT 3000 FU NSC 27/08 Q1012 NOSIG
VABB 061700Z 01006KT 3000 FU NSC 27/09 Q1012 NOSIG
VABB 061630Z 05006KT 3000 FU NSC 27/10 Q1012 NOSIG
VABB 061600Z 05006KT 3000 FU NSC 28/11 Q1012 NOSIG
VABB 061530Z 36007KT 3000 FU NSC 28/10 Q1012 NOSIG
VABB 061500Z 34011KT 3000 FU NSC 28/10 Q1012 NOSIG
VABB 061430Z 34011KT 3000 FU NSC 28/11 Q1011 NOSIG
VABB 061400Z 35010KT 3000 FU NSC 28/12 Q1011 NOSIG
VABB 061330Z 34007KT 3000 FU NSC 28/13 Q1010 NOSIG
VABB 061300Z 32007KT 3500 FU NSC 29/13 Q1010 BECMG 3000 FU
VABB 061230Z 32007KT 3500 FU NSC 30/12 Q1010 NOSIG
VABB 061200Z 32008KT 3500 FU NSC 30/12 Q1010 NOSIG
VABB 061130Z 35008KT 3500 FU NSC 31/12 Q1009 NOSIG
VABB 061100Z 30011KT 3500 FU NSC 30/12 Q1009 NOSIG
VABB 061030Z 31008KT 3500 FU NSC 31/12 Q1009 NOSIG
VABB 061000Z 30008KT 3500 FU NSC 32/15 Q1010 NOSIG
VABB 060930Z 30009KT 3500 FU NSC 32/14 Q1010 NOSIG
VABB 060900Z 29010KT 3000 FU NSC 32/13 Q1010 NOSIG
VABB 060830Z 27011KT 3000 FU NSC 32/16 Q1010 NOSIG
VABB 060800Z 27009KT 3000 FU NSC 31/17 Q1011 NOSIG
VABB 060730Z 26009KT 3000 FU NSC 30/16 Q1011 NOSIG
VABB 060700Z 27007KT 3000 FU NSC 30/16 Q1012 NOSIG
VABB 060630Z 26010KT 3000 FU NSC 30/16 Q1013 NOSIG
VABB 060600Z 26006KT 2500 FU NSC 30/14 Q1013 BECMG 3000 FU
VABB 060530Z 20003KT 2500 FU NSC 30/11 Q1014 NOSIG
VABB 060500Z 00000KT 2500 FU NSC 28/11 Q1014 NOSIG
VABB 060430Z 30003KT 2500 FU NSC 27/13 Q1014 NOSIG
VABB 060400Z 33004KT 2500 FU NSC 26/13 Q1014 NOSIG
VABB 060330Z 12004KT 2100 HZ NSC 25/16 Q1013 NOSIG
VABB 060300Z 14004KT 2100 HZ NSC 24/16 Q1012 NOSIG
VABB 060230Z 00000KT 2100 HZ NSC 22/17 Q1012 NOSIG
VABB 060200Z 04003KT 2100 HZ NSC 22/17 Q1012 NOSIG
VABB 060130Z 06005KT 2100 HZ NSC 23/17 Q1011 NOSIG
VABB 060100Z 05005KT 2200 HZ NSC 23/18 Q1011 NOSIG
VABB 060030Z 08003KT 2500 HZ NSC 24/19 Q1011 NOSIG
VABB 060000Z 03003KT 2500 HZ NSC 23/18 Q1010 NOSIG
VABB 052330Z 33003KT 2500 HZ NSC 23/19 Q1010 NOSIG
VABB 052300Z 33003KT 2500 HZ NSC 23/19 Q1010 NOSIG
VABB 052230Z 29003KT 2500 HZ NSC 23/18 Q1010 NOSIG
VABB 052200Z 28004KT 2200 HZ NSC 23/19 Q1010 NOSIG
VABB 052130Z 24003KT 2200 BR NSC 23/19 Q1011 NOSIG
VABB 052100Z 20004KT 2500 BR NSC 23/19 Q1011 NOSIG
VABB 052030Z 24005KT 2500 HZ NSC 23/19 Q1011 NOSIG
VABB 051930Z 00000KT 2500 FU NSC 25/16 Q1012 NOSIG
VABB 051900Z 00000KT 2500 FU NSC 25/15 Q1012 NOSIG
VABB 051830Z 34004KT 2500 FU NSC 26/15 Q1012 NOSIG
VABB 051800Z 35004KT 2500 FU NSC 26/15 Q1012 NOSIG
VABB 051730Z 05005KT 2200 HZ NSC 26/17 Q1012 NOSIG
VABB 051700Z 01005KT 2200 HZ NSC 26/17 Q1012 NOSIG
VABB 051630Z 24003KT 2200 HZ NSC 26/17 Q1012 NOSIG
VABB 051600Z 30004KT 2100 HZ NSC 26/17 Q1011 NOSIG
VABB 051530Z 30005KT 1700 HZ NSC 26/20 Q1011 NOSIG
VABB 051500Z 34005KT 1700 HZ NSC 27/20 Q1011 NOSIG
VABB 051430Z 31003KT 1600 HZ NSC 27/21 Q1011 NOSIG
VABB 051400Z 29005KT 1800 HZ NSC 27/20 Q1010 NOSIG
VABB 051330Z 27007KT 2200 FU NSC 28/19 Q1010 TEMPO 1500 HZ
VABB 051300Z 32005KT 2500 FU FEW100 29/17 Q1010 TEMPO 1500 FU
VABB 051230Z 31007KT 2500 FU NSC 29/15 Q1009 NOSIG
VABB 051200Z 30004KT 2500 FU NSC 31/12 Q1009 NOSIG
VABB 051130Z 30005KT 2500 FU NSC 32/12 Q1009 NOSIG
VABB 051100Z 26008KT 2500 FU NSC 32/15 Q1009 NOSIG
VABB 051030Z 26010KT 2500 FU NSC 31/17 Q1009 NOSIG
VABB 051000Z 26011KT 2500 FU NSC 32/13 Q1009 NOSIG
VABB 050930Z 27007KT 2500 FU NSC 31/12 Q1009 NOSIG
VABB 050900Z 24007KT 2500 FU NSC 31/14 Q1010 NOSIG
VABB 050830Z 27007KT 3000 FU NSC 31/16 Q1010 BECMG 2500 FU
VABB 050800Z 28007KT 3000 FU NSC 32/15 Q1010 NOSIG
VABB 050730Z 31003KT 2500 FU NSC 33/10 Q1011 BECMG 3000 FU
VABB 050700Z 27006KT 2500 FU NSC 32/12 Q1011 NOSIG
VABB 050630Z 27004KT 2500 FU NSC 32/12 Q1012 NOSIG
VABB 050600Z 06003KT 2500 FU NSC 32/09 Q1012 NOSIG
VABB 050530Z 35003KT 2500 FU NSC 31/11 Q1012 NOSIG
VABB 050500Z 09003KT 3000 FU NSC 31/13 Q1010 NOSIG
VABB 050430Z 03005KT 2500 FU NSC 30/12 Q1012 NOSIG
VABB 050400Z 03007KT 2200 FU NSC 28/12 Q1012 NOSIG
VABB 050330Z 12007KT 1800 FU NSC 27/14 Q1012 NOSIG
VABB 050300Z 07003KT 1800 FU NSC 26/14 Q1012 NOSIG
VABB 050230Z 00000KT 1800 FU NSC 25/14 Q1011 TEMPO 1500 FU
VABB 050200Z 00000KT 2200 FU NSC 24/14 Q1011 NOSIG
VABB 050130Z 00000KT 2200 FU NSC 25/13 Q1010 NOSIG
VABB 050100Z 14005KT 2200 FU NSC 25/13 Q1010 NOSIG
VABB 050030Z 00000KT 2200 HZ NSC 24/15 Q1010 NOSIG
VABB 050000Z 00000KT 2200 HZ NSC 24/16 Q1009 NOSIG
VABB 042330Z 10003KT 2200 HZ NSC 25/17 Q1009 NOSIG
VABB 042300Z 00000KT 2200 HZ NSC 24/17 Q1009 NOSIG
VABB 042230Z 00000KT 2200 HZ NSC 22/18 Q1009 NOSIG
VABB 042200Z 00000KT 3000 HZ NSC 23/18 Q1009 NOSIG
VABB 042130Z 00000KT 2200 HZ NSC 24/18 Q1010 NOSIG
VABB 042100Z 26003KT 2500 HZ NSC 25/17 Q1010 NOSIG
VABB 042030Z 00000KT 2500 HZ NSC 25/19 Q1010 NOSIG